Time,TemperatureF,DewpointF,PressureIn,WindDirection,WindDirectionDegrees,WindSpeedMPH,WindSpeedGustMPH,Humidity,HourlyPrecipIn,Conditions,Clouds,dailyrainin,SoftwareType,DateUTC
2013-02-14 00:00:00,41.1,37.8,29.79,North,352,0.0,2.0,88,0.00,,,0.35,WUHU216DAVISVP2,2013-02-14 05:00:00,
2013-02-14 00:05:00,40.9,37.6,29.79,NW,311,0.0,2.0,88,0.00,,,0.00,WUHU216DAVISVP2,2013-02-14 05:05:00,
2013-02-14 00:10:00,40.6,37.3,29.79,NW,311,0.0,1.0,88,0.00,,,0.00,WUHU216DAVISVP2,2013-02-14 05:10:00,
2013-02-14 00:15:00,40.5,37.2,29.80,NW,311,0.0,0.0,88,0.00,,,0.00,WUHU216DAVISVP2,2013-02-14 05:15:00,
2013-02-14 00:20:00,40.3,37.0,29.80,NW,311,0.0,0.0,88,0.00,,,0.00,WUHU216DAVISVP2,2013-02-14 05:20:00,
2013-02-14 00:25:00,39.9,36.6,29.80,NW,311,0.0,0.0,88,0.00,,,0.00,WUHU216DAVISVP2,2013-02-14 05:25:00,
2013-02-14 00:30:00,39.8,36.5,29.81,NW,311,0.0,0.0,88,0.00,,,0.00,WUHU216DAVISVP2,2013-02-14 05:30:00,
2013-02-14 00:35:00,39.5,36.2,29.81,NW,311,0.0,0.0,88,0.00,,,0.00,WUHU216DAVISVP2,2013-02-14 05:35:00,
2013-02-14 00:40:00,39.2,35.9,29.81,NW,311,0.0,0.0,88,0.00,,,0.00,WUHU216DAVISVP2,2013-02-14 05:40:00,
2013-02-14 00:45:00,39.1,35.8,29.82,NW,311,0.0,0.0,88,0.00,,,0.00,WUHU216DAVISVP2,2013-02-14 05:45:00,
2013-02-14 00:50:00,38.9,35.9,29.82,NW,311,0.0,0.0,89,0.00,,,0.00,WUHU216DAVISVP2,2013-02-14 05:50:00,
2013-02-14 00:55:00,38.8,35.8,29.82,NW,311,0.0,0.0,89,0.00,,,0.00,WUHU216DAVISVP2,2013-02-14 05:55:00,
2013-02-14 01:00:00,38.6,35.6,29.83,NW,311,0.0,0.0,89,0.00,,,0.00,WUHU216DAVISVP2,2013-02-14 06:00:00,
2013-02-14 01:05:00,38.5,35.5,29.83,NW,311,0.0,1.0,89,0.00,,,0.00,WUHU216DAVISVP2,2013-02-14 06:05:00,
2013-02-14 01:10:00,38.6,35.6,29.83,NW,311,0.0,1.0,89,0.00,,,0.00,WUHU216DAVISVP2,2013-02-14 06:10:00,
2013-02-14 01:15:00,38.5,35.5,29.83,NW,311,0.0,0.0,89,0.00,,,0.00,WUHU216DAVISVP2,2013-02-14 06:15:00,
2013-02-14 01:20:00,38.2,35.2,29.83,NW,311,0.0,0.0,89,0.00,,,0.00,WUHU216DAVISVP2,2013-02-14 06:20:00,
2013-02-14 01:25:00,38.0,35.0,29.83,NW,311,0.0,0.0,89,0.00,,,0.00,WUHU216DAVISVP2,2013-02-14 06:25:00,
2013-02-14 01:30:00,37.8,34.8,29.83,NW,311,0.0,0.0,89,0.00,,,0.00,WUHU216DAVISVP2,2013-02-14 06:30:00,
2013-02-14 01:35:00,37.6,34.6,29.83,NW,311,0.0,0.0,89,0.00,,,0.00,WUHU216DAVISVP2,2013-02-14 06:35:00,
2013-02-14 01:40:00,37.6,34.6,29.83,NW,311,0.0,0.0,89,0.00,,,0.00,WUHU216DAVISVP2,2013-02-14 06:40:00,
2013-02-14 01:45:00,37.6,34.6,29.84,NW,311,0.0,0.0,89,0.00,,,0.00,WUHU216DAVISVP2,2013-02-14 06:45:00,
2013-02-14 01:50:00,37.6,34.9,29.84,NW,311,0.0,0.0,90,0.00,,,0.00,WUHU216DAVISVP2,2013-02-14 06:50:00,
2013-02-14 01:55:00,37.5,34.5,29.84,NW,311,0.0,0.0,89,0.00,,,0.00,WUHU216DAVISVP2,2013-02-14 06:55:00,
2013-02-14 02:00:00,37.3,34.3,29.84,NW,311,0.0,0.0,89,0.00,,,0.00,WUHU216DAVISVP2,2013-02-14 07:00:00,
2013-02-14 02:05:00,37.2,34.2,29.84,NW,311,0.0,0.0,89,0.00,,,0.00,WUHU216DAVISVP2,2013-02-14 07:05:00,
2013-02-14 02:10:00,37.0,34.3,29.84,NW,311,0.0,0.0,90,0.00,,,0.00,WUHU216DAVISVP2,2013-02-14 07:10:00,
2013-02-14 02:15:00,36.9,34.2,29.84,NW,311,0.0,0.0,90,0.00,,,0.00,WUHU216DAVISVP2,2013-02-14 07:15:00,
2013-02-14 02:20:00,36.8,34.1,29.84,NW,311,0.0,0.0,90,0.00,,,0.00,WUHU216DAVISVP2,2013-02-14 07:20:00,
2013-02-14 02:25:00,36.6,33.9,29.84,NW,311,0.0,0.0,90,0.00,,,0.00,WUHU216DAVISVP2,2013-02-14 07:25:00,
2013-02-14 02:30:00,36.5,33.8,29.85,NW,311,0.0,0.0,90,0.00,,,0.00,WUHU216DAVISVP2,2013-02-14 07:30:00,
2013-02-14 02:35:00,36.5,33.8,29.85,NW,311,0.0,0.0,90,0.00,,,0.00,WUHU216DAVISVP2,2013-02-14 07:35:00,
2013-02-14 02:40:00,36.3,33.6,29.85,NW,311,0.0,0.0,90,0.00,,,0.00,WUHU216DAVISVP2,2013-02-14 07:40:00,
2013-02-14 02:45:00,36.2,33.5,29.85,NW,311,0.0,0.0,90,0.00,,,0.00,WUHU216DAVISVP2,2013-02-14 07:45:00,
2013-02-14 02:50:00,36.0,33.3,29.85,NW,311,0.0,0.0,90,0.00,,,0.00,WUHU216DAVISVP2,2013-02-14 07:50:00,
2013-02-14 02:55:00,36.0,33.3,29.85,NW,311,0.0,0.0,90,0.00,,,0.00,WUHU216DAVISVP2,2013-02-14 07:55:00,
2013-02-14 03:00:00,35.9,33.2,29.86,NW,311,0.0,0.0,90,0.00,,,0.00,WUHU216DAVISVP2,2013-02-14 08:00:00,
2013-02-14 03:05:00,35.8,33.1,29.86,NW,311,0.0,0.0,90,0.00,,,0.00,WUHU216DAVISVP2,2013-02-14 08:05:00,
2013-02-14 03:10:00,35.6,32.9,29.86,NW,311,0.0,0.0,90,0.00,,,0.00,WUHU216DAVISVP2,2013-02-14 08:10:00,
2013-02-14 03:15:00,35.8,33.1,29.86,NW,311,0.0,0.0,90,0.00,,,0.00,WUHU216DAVISVP2,2013-02-14 08:15:00,
2013-02-14 03:20:00,35.8,33.1,29.86,NW,311,0.0,0.0,90,0.00,,,0.00,WUHU216DAVISVP2,2013-02-14 08:20:00,
2013-02-14 03:25:00,35.6,32.9,29.86,NW,311,0.0,0.0,90,0.00,,,0.00,WUHU216DAVISVP2,2013-02-14 08:25:00,
2013-02-14 03:30:00,35.6,32.9,29.87,NW,311,0.0,0.0,90,0.00,,,0.00,WUHU216DAVISVP2,2013-02-14 08:30:00,
2013-02-14 03:35:00,35.6,32.9,29.87,NW,311,0.0,0.0,90,0.00,,,0.00,WUHU216DAVISVP2,2013-02-14 08:35:00,
2013-02-14 03:40:00,35.3,32.6,29.87,NW,311,0.0,0.0,90,0.00,,,0.00,WUHU216DAVISVP2,2013-02-14 08:40:00,
2013-02-14 03:45:00,35.3,32.6,29.88,NW,311,0.0,0.0,90,0.00,,,0.00,WUHU216DAVISVP2,2013-02-14 08:45:00,
2013-02-14 03:50:00,35.0,32.3,29.88,NW,311,0.0,0.0,90,0.00,,,0.00,WUHU216DAVISVP2,2013-02-14 08:50:00,
2013-02-14 03:55:00,35.0,32.3,29.88,NW,311,0.0,0.0,90,0.00,,,0.00,WUHU216DAVISVP2,2013-02-14 08:55:00,
2013-02-14 04:00:00,34.9,32.2,29.88,NW,311,0.0,0.0,90,0.00,,,0.00,WUHU216DAVISVP2,2013-02-14 09:00:00,
2013-02-14 04:05:00,34.7,32.0,29.88,NW,311,0.0,0.0,90,0.00,,,0.00,WUHU216DAVISVP2,2013-02-14 09:05:00,
2013-02-14 04:10:00,34.7,32.0,29.88,NW,311,0.0,0.0,90,0.00,,,0.00,WUHU216DAVISVP2,2013-02-14 09:10:00,
2013-02-14 04:15:00,34.9,32.2,29.89,NW,311,0.0,0.0,90,0.00,,,0.00,WUHU216DAVISVP2,2013-02-14 09:15:00,
2013-02-14 04:20:00,34.9,32.2,29.89,NW,311,0.0,0.0,90,0.00,,,0.00,WUHU216DAVISVP2,2013-02-14 09:20:00,
2013-02-14 04:25:00,34.9,32.2,29.89,NW,311,0.0,0.0,90,0.00,,,0.00,WUHU216DAVISVP2,2013-02-14 09:25:00,
2013-02-14 04:30:00,34.9,32.2,29.89,NW,311,0.0,0.0,90,0.00,,,0.00,WUHU216DAVISVP2,2013-02-14 09:30:00,
2013-02-14 04:35:00,34.7,32.0,29.89,NW,311,0.0,0.0,90,0.00,,,0.00,WUHU216DAVISVP2,2013-02-14 09:35:00,
2013-02-14 04:40:00,34.7,32.0,29.89,NW,311,0.0,0.0,90,0.00,,,0.00,WUHU216DAVISVP2,2013-02-14 09:40:00,
2013-02-14 04:45:00,34.6,31.9,29.90,NW,311,0.0,0.0,90,0.00,,,0.00,WUHU216DAVISVP2,2013-02-14 09:45:00,
2013-02-14 04:50:00,34.6,31.9,29.90,NW,311,0.0,0.0,90,0.00,,,0.00,WUHU216DAVISVP2,2013-02-14 09:50:00,
2013-02-14 04:55:00,34.9,32.2,29.90,NW,311,0.0,0.0,90,0.00,,,0.00,WUHU216DAVISVP2,2013-02-14 09:55:00,
2013-02-14 05:00:00,34.7,32.0,29.91,NW,311,0.0,0.0,90,0.00,,,0.00,WUHU216DAVISVP2,2013-02-14 10:00:00,
2013-02-14 05:05:00,34.6,31.9,29.91,NW,311,0.0,0.0,90,0.00,,,0.00,WUHU216DAVISVP2,2013-02-14 10:05:00,
2013-02-14 05:10:00,34.4,31.7,29.91,NW,311,0.0,0.0,90,0.00,,,0.00,WUHU216DAVISVP2,2013-02-14 10:10:00,
2013-02-14 05:15:00,34.3,31.6,29.91,NW,311,0.0,0.0,90,0.00,,,0.00,WUHU216DAVISVP2,2013-02-14 10:15:00,
2013-02-14 05:20:00,34.3,31.6,29.91,NW,311,0.0,0.0,90,0.00,,,0.00,WUHU216DAVISVP2,2013-02-14 10:20:00,
2013-02-14 05:25:00,34.1,31.4,29.91,NW,311,0.0,0.0,90,0.00,,,0.00,WUHU216DAVISVP2,2013-02-14 10:25:00,
2013-02-14 05:30:00,34.0,31.3,29.92,NW,311,0.0,0.0,90,0.00,,,0.00,WUHU216DAVISVP2,2013-02-14 10:30:00,
2013-02-14 05:35:00,34.0,31.3,29.92,NW,311,0.0,0.0,90,0.00,,,0.00,WUHU216DAVISVP2,2013-02-14 10:35:00,
2013-02-14 05:40:00,33.8,31.1,29.92,NW,311,0.0,0.0,90,0.00,,,0.00,WUHU216DAVISVP2,2013-02-14 10:40:00,
2013-02-14 05:45:00,33.8,31.1,29.92,NW,311,0.0,0.0,90,0.00,,,0.00,WUHU216DAVISVP2,2013-02-14 10:45:00,
2013-02-14 05:50:00,33.7,31.0,29.92,NW,311,0.0,0.0,90,0.00,,,0.00,WUHU216DAVISVP2,2013-02-14 10:50:00,
2013-02-14 05:55:00,33.5,30.8,29.92,NW,311,0.0,0.0,90,0.00,,,0.00,WUHU216DAVISVP2,2013-02-14 10:55:00,
2013-02-14 06:00:00,33.7,31.0,29.93,NW,311,0.0,0.0,90,0.00,,,0.00,WUHU216DAVISVP2,2013-02-14 11:00:00,
2013-02-14 06:05:00,33.7,31.0,29.93,NW,311,0.0,0.0,90,0.00,,,0.00,WUHU216DAVISVP2,2013-02-14 11:05:00,
2013-02-14 06:10:00,33.7,31.0,29.93,NW,311,0.0,0.0,90,0.00,,,0.00,WUHU216DAVISVP2,2013-02-14 11:10:00,
2013-02-14 06:15:00,33.5,30.9,29.95,NW,311,0.0,0.0,90,0.00,,,0.00,WUHU216DAVISVP2,2013-02-14 11:15:00,
2013-02-14 06:20:00,33.5,30.9,29.95,NW,311,0.0,0.0,90,0.00,,,0.00,WUHU216DAVISVP2,2013-02-14 11:20:00,
2013-02-14 06:25:00,33.4,30.7,29.95,NW,311,0.0,0.0,90,0.00,,,0.00,WUHU216DAVISVP2,2013-02-14 11:25:00,
2013-02-14 06:30:00,33.4,30.8,29.95,NW,311,0.0,0.0,90,0.00,,,0.00,WUHU216DAVISVP2,2013-02-14 11:30:00,
2013-02-14 06:36:00,33.7,31.3,29.95,NW,311,0.0,0.0,91,0.00,,,0.00,WUHU216DAVISVP2,2013-02-14 11:36:00,
2013-02-14 06:41:00,33.8,31.4,29.95,NW,311,0.0,0.0,91,0.00,,,0.00,WUHU216DAVISVP2,2013-02-14 11:41:00,
2013-02-14 06:46:00,33.5,31.1,29.95,NW,311,0.0,0.0,91,0.00,,,0.00,WUHU216DAVISVP2,2013-02-14 11:46:00,
2013-02-14 06:51:00,33.5,30.8,29.95,NW,311,0.0,0.0,90,0.00,,,0.00,WUHU216DAVISVP2,2013-02-14 11:51:00,
2013-02-14 06:56:00,33.4,30.7,29.95,NW,311,0.0,0.0,90,0.00,,,0.00,WUHU216DAVISVP2,2013-02-14 11:56:00,
2013-02-14 07:01:00,33.4,31.0,29.97,NW,311,0.0,0.0,91,0.00,,,0.00,WUHU216DAVISVP2,2013-02-14 12:01:00,
2013-02-14 07:06:00,33.4,31.0,29.97,NW,311,0.0,0.0,91,0.00,,,0.00,WUHU216DAVISVP2,2013-02-14 12:06:00,
2013-02-14 07:11:00,33.4,31.0,29.97,NW,311,0.0,0.0,91,0.00,,,0.00,WUHU216DAVISVP2,2013-02-14 12:11:00,
2013-02-14 07:16:00,33.4,31.0,29.97,NW,311,0.0,0.0,91,0.00,,,0.00,WUHU216DAVISVP2,2013-02-14 12:16:00,
2013-02-14 07:21:00,33.5,31.1,29.97,NW,311,0.0,0.0,91,0.00,,,0.00,WUHU216DAVISVP2,2013-02-14 12:21:00,
2013-02-14 07:26:00,33.8,31.4,29.97,NW,311,0.0,0.0,91,0.00,,,0.00,WUHU216DAVISVP2,2013-02-14 12:26:00,
2013-02-14 07:31:00,33.8,31.4,29.98,NW,311,0.0,0.0,91,0.00,,,0.00,WUHU216DAVISVP2,2013-02-14 12:31:00,
2013-02-14 07:36:00,33.8,31.4,29.98,NW,311,0.0,0.0,91,0.00,,,0.00,WUHU216DAVISVP2,2013-02-14 12:36:00,
2013-02-14 07:41:00,34.0,31.6,29.98,NW,311,0.0,0.0,91,0.00,,,0.00,WUHU216DAVISVP2,2013-02-14 12:41:00,
2013-02-14 07:46:00,34.3,31.9,29.98,NW,311,0.0,0.0,91,0.00,,,0.00,WUHU216DAVISVP2,2013-02-14 12:46:00,
2013-02-14 07:51:00,34.4,32.0,29.98,NW,311,0.0,0.0,91,0.00,,,0.00,WUHU216DAVISVP2,2013-02-14 12:51:00,
2013-02-14 07:56:00,34.1,31.7,29.98,NW,311,0.0,0.0,91,0.00,,,0.00,WUHU216DAVISVP2,2013-02-14 12:56:00,
2013-02-14 08:01:00,34.6,32.2,29.98,NW,311,0.0,0.0,91,0.00,,,0.00,WUHU216DAVISVP2,2013-02-14 13:01:00,
2013-02-14 08:06:00,34.6,32.2,29.98,NW,311,0.0,0.0,91,0.00,,,0.00,WUHU216DAVISVP2,2013-02-14 13:06:00,
2013-02-14 08:11:00,35.0,32.6,29.98,NW,311,0.0,0.0,91,0.00,,,0.00,WUHU216DAVISVP2,2013-02-14 13:11:00,
2013-02-14 08:15:00,34.9,32.5,30.00,NW,311,0.0,0.0,91,0.00,,,0.00,WUHU216DAVISVP2,2013-02-14 13:15:00,
2013-02-14 08:20:00,35.8,33.4,30.00,NW,311,0.0,0.0,91,0.00,,,0.00,WUHU216DAVISVP2,2013-02-14 13:20:00,
2013-02-14 08:25:00,36.0,33.9,30.00,NW,311,0.0,0.0,92,0.00,,,0.00,WUHU216DAVISVP2,2013-02-14 13:25:00,
2013-02-14 08:30:00,35.9,33.5,30.00,NW,311,0.0,0.0,91,0.00,,,0.00,WUHU216DAVISVP2,2013-02-14 13:30:00,
2013-02-14 08:35:00,36.2,33.8,30.00,NW,311,0.0,0.0,91,0.00,,,0.00,WUHU216DAVISVP2,2013-02-14 13:35:00,
2013-02-14 08:40:00,36.9,34.7,30.00,NW,311,0.0,0.0,92,0.00,,,0.00,WUHU216DAVISVP2,2013-02-14 13:40:00,
2013-02-14 08:45:00,37.0,34.8,30.02,NW,311,0.0,0.0,92,0.00,,,0.00,WUHU216DAVISVP2,2013-02-14 13:45:00,
2013-02-14 08:50:00,37.5,35.3,30.02,NW,311,0.0,0.0,92,0.00,,,0.00,WUHU216DAVISVP2,2013-02-14 13:50:00,
2013-02-14 08:55:00,38.2,36.0,30.02,NW,311,0.0,0.0,92,0.00,,,0.00,WUHU216DAVISVP2,2013-02-14 13:55:00,
2013-02-14 09:00:00,38.8,36.6,30.03,NW,311,0.0,1.0,92,0.00,,,0.00,WUHU216DAVISVP2,2013-02-14 14:00:00,
2013-02-14 09:05:00,39.3,37.1,30.03,NW,311,0.0,1.0,92,0.00,,,0.00,WUHU216DAVISVP2,2013-02-14 14:05:00,
2013-02-14 09:12:00,39.9,37.7,30.03,NW,311,2.0,4.0,92,0.00,,,0.00,WUHU216DAVISVP2,2013-02-14 14:12:00,
2013-02-14 09:17:00,40.3,37.8,30.04,NW,322,2.0,6.0,91,0.00,,,0.00,WUHU216DAVISVP2,2013-02-14 14:17:00,
2013-02-14 09:22:00,40.5,38.0,30.04,WNW,301,0.0,6.0,91,0.00,,,0.00,WUHU216DAVISVP2,2013-02-14 14:22:00,
2013-02-14 09:27:00,40.6,37.9,30.04,WNW,301,0.0,6.0,90,0.00,,,0.00,WUHU216DAVISVP2,2013-02-14 14:27:00,
2013-02-14 09:32:00,40.9,38.2,30.03,NW,305,4.0,6.0,90,0.00,,,0.00,WUHU216DAVISVP2,2013-02-14 14:32:00,
2013-02-14 09:37:00,41.3,38.5,30.03,North,353,1.0,6.0,90,0.00,,,0.00,WUHU216DAVISVP2,2013-02-14 14:37:00,
2013-02-14 09:42:00,41.6,38.6,30.03,NW,320,2.0,7.0,89,0.00,,,0.00,WUHU216DAVISVP2,2013-02-14 14:42:00,
2013-02-14 09:47:00,41.6,38.3,30.02,NNW,332,2.0,7.0,88,0.00,,,0.00,WUHU216DAVISVP2,2013-02-14 14:47:00,
2013-02-14 09:52:00,41.9,38.6,30.02,North,3,1.0,6.0,88,0.00,,,0.00,WUHU216DAVISVP2,2013-02-14 14:52:00,
2013-02-14 09:57:00,42.5,38.6,30.02,North,0,6.0,6.0,86,0.00,,,0.00,WUHU216DAVISVP2,2013-02-14 14:57:00,
2013-02-14 10:02:00,42.8,38.6,30.02,West,263,1.0,6.0,85,0.00,,,0.00,WUHU216DAVISVP2,2013-02-14 15:02:00,
2013-02-14 10:07:00,43.1,38.6,30.02,NNW,332,4.0,7.0,84,0.00,,,0.00,WUHU216DAVISVP2,2013-02-14 15:07:00,
2013-02-14 10:12:00,43.5,38.7,30.02,North,0,1.0,8.0,83,0.00,,,0.00,WUHU216DAVISVP2,2013-02-14 15:12:00,
2013-02-14 10:17:00,43.6,38.5,30.01,North,359,1.0,8.0,82,0.00,,,0.00,WUHU216DAVISVP2,2013-02-14 15:17:00,
2013-02-14 10:22:00,43.9,39.1,30.01,NW,325,2.0,6.0,83,0.00,,,0.00,WUHU216DAVISVP2,2013-02-14 15:22:00,
2013-02-14 10:27:00,44.1,39.0,30.01,WNW,292,1.0,6.0,82,0.00,,,0.00,WUHU216DAVISVP2,2013-02-14 15:27:00,
2013-02-14 10:32:00,44.5,39.0,30.00,NNE,16,1.0,6.0,81,0.00,,,0.00,WUHU216DAVISVP2,2013-02-14 15:32:00,
2013-02-14 10:37:00,44.6,37.9,30.00,NNE,17,2.0,6.0,77,0.00,,,0.00,WUHU216DAVISVP2,2013-02-14 15:37:00,
2013-02-14 10:42:00,44.6,38.5,30.00,NW,313,6.0,6.0,79,0.00,,,0.00,WUHU216DAVISVP2,2013-02-14 15:42:00,
2013-02-14 10:47:00,44.6,38.2,30.01,North,4,1.0,7.0,78,0.00,,,0.00,WUHU216DAVISVP2,2013-02-14 15:47:00,
2013-02-14 10:52:00,44.8,38.4,30.01,NNE,32,0.0,7.0,78,0.00,,,0.00,WUHU216DAVISVP2,2013-02-14 15:52:00,
2013-02-14 10:57:00,45.2,38.5,30.01,NNW,330,0.0,6.0,77,0.01,,,0.01,WUHU216DAVISVP2,2013-02-14 15:57:00,
2013-02-14 11:02:00,45.5,38.4,30.02,NNE,25,2.0,6.0,76,0.01,,,0.01,WUHU216DAVISVP2,2013-02-14 16:02:00,
2013-02-14 11:07:00,45.8,38.7,30.02,North,349,1.0,4.0,76,0.01,,,0.01,WUHU216DAVISVP2,2013-02-14 16:07:00,
2013-02-14 11:12:00,46.1,39.0,30.02,NNW,344,0.0,4.0,76,0.01,,,0.01,WUHU216DAVISVP2,2013-02-14 16:12:00,
2013-02-14 11:17:00,46.4,38.6,30.03,NW,316,1.0,7.0,74,0.01,,,0.01,WUHU216DAVISVP2,2013-02-14 16:17:00,
2013-02-14 11:22:00,46.5,38.7,30.03,NNW,330,1.0,7.0,74,0.01,,,0.01,WUHU216DAVISVP2,2013-02-14 16:22:00,
2013-02-14 11:27:00,46.4,37.6,30.03,ENE,61,0.0,4.0,71,0.01,,,0.01,WUHU216DAVISVP2,2013-02-14 16:27:00,
2013-02-14 11:32:00,46.7,37.9,30.02,NE,54,0.0,2.0,71,0.01,,,0.01,WUHU216DAVISVP2,2013-02-14 16:32:00,
2013-02-14 11:37:00,47.0,38.5,30.02,NNW,332,0.0,2.0,72,0.01,,,0.01,WUHU216DAVISVP2,2013-02-14 16:37:00,
2013-02-14 11:42:00,47.1,38.6,30.02,NNW,332,0.0,2.0,72,0.01,,,0.01,WUHU216DAVISVP2,2013-02-14 16:42:00,
2013-02-14 11:47:00,47.4,38.6,30.02,NNW,335,1.0,6.0,71,0.01,,,0.01,WUHU216DAVISVP2,2013-02-14 16:47:00,
2013-02-14 11:52:00,47.3,38.1,30.02,NNE,25,2.0,6.0,70,0.01,,,0.01,WUHU216DAVISVP2,2013-02-14 16:52:00,
2013-02-14 11:57:00,47.6,38.0,30.02,NNE,25,1.0,4.0,69,0.00,,,0.01,WUHU216DAVISVP2,2013-02-14 16:57:00,
2013-02-14 12:02:00,47.9,37.9,30.01,East,92,4.0,4.0,68,0.00,,,0.01,WUHU216DAVISVP2,2013-02-14 17:02:00,
2013-02-14 12:07:00,47.6,36.9,30.01,SE,128,2.0,4.0,66,0.00,,,0.01,WUHU216DAVISVP2,2013-02-14 17:07:00,
2013-02-14 12:12:00,47.6,37.3,30.01,WSW,257,0.0,6.0,67,0.00,,,0.01,WUHU216DAVISVP2,2013-02-14 17:12:00,
2013-02-14 12:17:00,48.0,38.4,30.00,WSW,257,1.0,6.0,69,0.00,,,0.01,WUHU216DAVISVP2,2013-02-14 17:17:00,
2013-02-14 12:22:00,48.3,38.3,30.00,East,83,0.0,4.0,68,0.00,,,0.01,WUHU216DAVISVP2,2013-02-14 17:22:00,
2013-02-14 12:27:00,48.6,37.9,30.00,SSE,150,0.0,4.0,66,0.00,,,0.01,WUHU216DAVISVP2,2013-02-14 17:27:00,
2013-02-14 12:32:00,49.1,38.7,30.00,NW,326,4.0,6.0,67,0.00,,,0.01,WUHU216DAVISVP2,2013-02-14 17:32:00,
2013-02-14 12:37:00,49.4,38.2,30.00,NW,326,1.0,7.0,65,0.00,,,0.01,WUHU216DAVISVP2,2013-02-14 17:37:00,
2013-02-14 12:42:00,49.6,38.8,30.00,NNW,346,6.0,7.0,66,0.00,,,0.01,WUHU216DAVISVP2,2013-02-14 17:42:00,
2013-02-14 12:47:00,49.9,38.7,30.00,NNW,329,0.0,7.0,65,0.00,,,0.01,WUHU216DAVISVP2,2013-02-14 17:47:00,
2013-02-14 12:52:00,50.4,39.2,30.00,SSE,151,2.0,6.0,65,0.00,,,0.01,WUHU216DAVISVP2,2013-02-14 17:52:00,
2013-02-14 12:57:00,50.1,37.7,30.00,SE,130,0.0,6.0,62,0.00,,,0.01,WUHU216DAVISVP2,2013-02-14 17:57:00,
2013-02-14 13:02:00,50.1,38.5,30.00,East,85,0.0,6.0,64,0.00,,,0.01,WUHU216DAVISVP2,2013-02-14 18:02:00,
2013-02-14 13:07:00,50.4,38.0,30.00,SSW,192,0.0,7.0,62,0.00,,,0.01,WUHU216DAVISVP2,2013-02-14 18:07:00,
2013-02-14 13:12:00,50.4,38.0,30.00,SW,223,0.0,7.0,62,0.00,,,0.01,WUHU216DAVISVP2,2013-02-14 18:12:00,
2013-02-14 13:17:00,50.4,38.0,29.99,NW,320,0.0,4.0,62,0.00,,,0.01,WUHU216DAVISVP2,2013-02-14 18:17:00,
2013-02-14 13:22:00,50.2,37.4,29.99,SSE,151,0.0,6.0,61,0.00,,,0.01,WUHU216DAVISVP2,2013-02-14 18:22:00,
2013-02-14 13:27:00,50.1,37.3,29.99,ENE,59,4.0,6.0,61,0.00,,,0.01,WUHU216DAVISVP2,2013-02-14 18:27:00,
2013-02-14 13:32:00,50.2,37.8,29.99,ESE,110,1.0,6.0,62,0.00,,,0.01,WUHU216DAVISVP2,2013-02-14 18:32:00,
2013-02-14 13:37:00,50.4,37.1,29.99,ESE,119,0.0,6.0,60,0.00,,,0.01,WUHU216DAVISVP2,2013-02-14 18:37:00,
2013-02-14 13:42:00,50.5,37.6,29.99,SSE,147,2.0,7.0,61,0.00,,,0.01,WUHU216DAVISVP2,2013-02-14 18:42:00,
2013-02-14 13:47:00,50.4,37.1,29.99,WNW,296,0.0,7.0,60,0.00,,,0.01,WUHU216DAVISVP2,2013-02-14 18:47:00,
2013-02-14 13:52:00,50.4,37.1,29.99,ENE,64,2.0,4.0,60,0.00,,,0.01,WUHU216DAVISVP2,2013-02-14 18:52:00,
2013-02-14 13:57:00,50.8,37.5,29.99,NE,49,0.0,7.0,60,0.00,,,0.01,WUHU216DAVISVP2,2013-02-14 18:57:00,
2013-02-14 14:02:00,51.1,37.8,29.98,NNW,329,0.0,7.0,60,0.00,,,0.01,WUHU216DAVISVP2,2013-02-14 19:02:00,
2013-02-14 14:07:00,51.3,37.5,29.98,NW,323,1.0,6.0,59,0.00,,,0.01,WUHU216DAVISVP2,2013-02-14 19:07:00,
2013-02-14 14:12:00,51.1,37.8,29.98,North,0,0.0,4.0,60,0.00,,,0.01,WUHU216DAVISVP2,2013-02-14 19:12:00,
2013-02-14 14:17:00,51.1,37.4,29.98,NW,309,0.0,4.0,59,0.00,,,0.01,WUHU216DAVISVP2,2013-02-14 19:17:00,
2013-02-14 14:22:00,50.8,37.1,29.98,NW,315,0.0,4.0,59,0.00,,,0.01,WUHU216DAVISVP2,2013-02-14 19:22:00,
2013-02-14 14:27:00,50.7,37.0,29.98,NNE,27,0.0,4.0,59,0.00,,,0.01,WUHU216DAVISVP2,2013-02-14 19:27:00,
2013-02-14 14:32:00,50.7,37.0,29.97,NNW,342,1.0,4.0,59,0.00,,,0.01,WUHU216DAVISVP2,2013-02-14 19:32:00,
2013-02-14 14:37:00,50.7,37.0,29.97,NW,326,1.0,7.0,59,0.00,,,0.01,WUHU216DAVISVP2,2013-02-14 19:37:00,
2013-02-14 14:42:00,50.8,37.1,29.97,SSE,148,1.0,7.0,59,0.00,,,0.01,WUHU216DAVISVP2,2013-02-14 19:42:00,
2013-02-14 14:47:00,51.1,36.9,29.97,North,4,2.0,6.0,58,0.00,,,0.01,WUHU216DAVISVP2,2013-02-14 19:47:00,
2013-02-14 14:52:00,51.3,36.6,29.97,NW,308,1.0,8.0,57,0.00,,,0.01,WUHU216DAVISVP2,2013-02-14 19:52:00,
2013-02-14 14:57:00,51.6,36.9,29.97,WNW,302,0.0,8.0,57,0.00,,,0.01,WUHU216DAVISVP2,2013-02-14 19:57:00,
2013-02-14 15:02:00,51.9,36.8,29.97,WSW,256,0.0,6.0,56,0.00,,,0.01,WUHU216DAVISVP2,2013-02-14 20:02:00,
2013-02-14 15:07:00,51.9,36.8,29.97,North,359,0.0,7.0,56,0.00,,,0.01,WUHU216DAVISVP2,2013-02-14 20:07:00,
2013-02-14 15:12:00,51.6,36.0,29.97,West,268,1.0,7.0,55,0.00,,,0.01,WUHU216DAVISVP2,2013-02-14 20:12:00,
2013-02-14 15:17:00,51.1,35.5,29.97,NNE,25,2.0,6.0,55,0.00,,,0.01,WUHU216DAVISVP2,2013-02-14 20:17:00,
2013-02-14 15:22:00,50.8,35.7,29.97,NNW,330,0.0,4.0,56,0.00,,,0.01,WUHU216DAVISVP2,2013-02-14 20:22:00,
2013-02-14 15:27:00,50.8,35.7,29.97,SSW,202,0.0,4.0,56,0.00,,,0.01,WUHU216DAVISVP2,2013-02-14 20:27:00,
2013-02-14 15:32:00,50.5,35.0,29.97,North,6,0.0,4.0,55,0.00,,,0.01,WUHU216DAVISVP2,2013-02-14 20:32:00,
2013-02-14 15:37:00,50.5,34.5,29.97,East,88,0.0,4.0,54,0.00,,,0.01,WUHU216DAVISVP2,2013-02-14 20:37:00,
2013-02-14 15:42:00,50.4,34.9,29.97,North,354,0.0,4.0,55,0.00,,,0.01,WUHU216DAVISVP2,2013-02-14 20:42:00,
2013-02-14 15:47:00,50.4,35.3,29.98,North,354,0.0,4.0,56,0.00,,,0.01,WUHU216DAVISVP2,2013-02-14 20:47:00,
2013-02-14 15:52:00,50.4,35.3,29.98,North,356,0.0,2.0,56,0.00,,,0.01,WUHU216DAVISVP2,2013-02-14 20:52:00,
2013-02-14 15:57:00,50.4,34.9,29.98,NE,38,0.0,4.0,55,0.00,,,0.01,WUHU216DAVISVP2,2013-02-14 20:57:00,
2013-02-14 16:02:00,50.4,34.9,29.98,NE,40,0.0,4.0,55,0.00,,,0.01,WUHU216DAVISVP2,2013-02-14 21:02:00,
2013-02-14 16:07:00,50.4,34.9,29.98,NE,40,0.0,1.0,55,0.00,,,0.01,WUHU216DAVISVP2,2013-02-14 21:07:00,
2013-02-14 16:12:00,50.1,34.1,29.98,ESE,113,0.0,7.0,54,0.00,,,0.01,WUHU216DAVISVP2,2013-02-14 21:12:00,
2013-02-14 16:17:00,49.9,34.4,29.97,ESE,116,0.0,7.0,55,0.00,,,0.01,WUHU216DAVISVP2,2013-02-14 21:17:00,
2013-02-14 16:22:00,49.9,34.4,29.97,NW,304,1.0,4.0,55,0.00,,,0.01,WUHU216DAVISVP2,2013-02-14 21:22:00,
2013-02-14 16:27:00,49.9,34.9,29.97,NW,304,0.0,4.0,56,0.00,,,0.01,WUHU216DAVISVP2,2013-02-14 21:27:00,
2013-02-14 16:32:00,49.8,34.3,29.98,North,11,0.0,4.0,55,0.00,,,0.01,WUHU216DAVISVP2,2013-02-14 21:32:00,
2013-02-14 16:37:00,49.6,35.1,29.98,NNE,13,0.0,4.0,57,0.00,,,0.01,WUHU216DAVISVP2,2013-02-14 21:37:00,
2013-02-14 16:42:00,49.6,35.5,29.98,NNE,13,0.0,1.0,58,0.00,,,0.01,WUHU216DAVISVP2,2013-02-14 21:42:00,
2013-02-14 16:47:00,49.6,35.1,29.98,NNE,13,0.0,0.0,57,0.00,,,0.01,WUHU216DAVISVP2,2013-02-14 21:47:00,
2013-02-14 16:52:00,49.5,36.3,29.98,NNE,13,0.0,0.0,60,0.00,,,0.01,WUHU216DAVISVP2,2013-02-14 21:52:00,
2013-02-14 16:57:00,49.4,36.6,29.98,NNE,13,0.0,0.0,61,0.00,,,0.01,WUHU216DAVISVP2,2013-02-14 21:57:00,
2013-02-14 17:02:00,49.2,36.0,29.97,NNE,13,0.0,0.0,60,0.00,,,0.01,WUHU216DAVISVP2,2013-02-14 22:02:00,
2013-02-14 17:07:00,48.9,36.5,29.97,NNE,13,0.0,0.0,62,0.00,,,0.01,WUHU216DAVISVP2,2013-02-14 22:07:00,
2013-02-14 17:12:00,48.6,36.7,29.97,NNE,13,0.0,0.0,63,0.00,,,0.01,WUHU216DAVISVP2,2013-02-14 22:12:00,
2013-02-14 17:17:00,48.2,36.3,29.98,NNE,13,0.0,0.0,63,0.00,,,0.01,WUHU216DAVISVP2,2013-02-14 22:17:00,
2013-02-14 17:22:00,47.7,36.2,29.98,NNE,13,0.0,0.0,64,0.00,,,0.01,WUHU216DAVISVP2,2013-02-14 22:22:00,
2013-02-14 17:27:00,47.3,35.8,29.98,NNE,13,0.0,0.0,64,0.00,,,0.01,WUHU216DAVISVP2,2013-02-14 22:27:00,
2013-02-14 17:32:00,47.0,35.9,29.98,NNE,13,0.0,0.0,65,0.00,,,0.01,WUHU216DAVISVP2,2013-02-14 22:32:00,
2013-02-14 17:37:00,46.7,35.7,29.98,NNE,13,0.0,0.0,65,0.00,,,0.01,WUHU216DAVISVP2,2013-02-14 22:37:00,
2013-02-14 17:42:00,46.2,35.2,29.98,NNE,13,0.0,0.0,65,0.00,,,0.01,WUHU216DAVISVP2,2013-02-14 22:42:00,
2013-02-14 17:47:00,45.8,35.2,29.99,NNE,13,0.0,0.0,66,0.00,,,0.01,WUHU216DAVISVP2,2013-02-14 22:47:00,
2013-02-14 17:52:00,45.4,34.8,29.99,NNE,13,0.0,0.0,66,0.00,,,0.01,WUHU216DAVISVP2,2013-02-14 22:52:00,
2013-02-14 17:57:00,45.1,34.9,29.99,NNE,13,0.0,0.0,67,0.00,,,0.01,WUHU216DAVISVP2,2013-02-14 22:57:00,
2013-02-14 18:02:00,44.8,34.6,29.99,NNE,13,0.0,0.0,67,0.00,,,0.01,WUHU216DAVISVP2,2013-02-14 23:02:00,
2013-02-14 18:07:00,44.3,34.1,29.99,NNE,13,0.0,0.0,67,0.00,,,0.01,WUHU216DAVISVP2,2013-02-14 23:07:00,
2013-02-14 18:12:00,43.9,34.1,29.99,NNE,13,0.0,0.0,68,0.00,,,0.01,WUHU216DAVISVP2,2013-02-14 23:12:00,
2013-02-14 18:17:00,43.5,34.1,30.00,NNE,13,0.0,0.0,69,0.00,,,0.01,WUHU216DAVISVP2,2013-02-14 23:17:00,
2013-02-14 18:22:00,43.1,33.7,30.00,NNE,13,0.0,0.0,69,0.00,,,0.01,WUHU216DAVISVP2,2013-02-14 23:22:00,
2013-02-14 18:27:00,42.6,33.6,30.00,NNE,13,0.0,0.0,70,0.00,,,0.01,WUHU216DAVISVP2,2013-02-14 23:27:00,
2013-02-14 18:32:00,42.3,33.3,29.99,NNE,13,0.0,0.0,70,0.00,,,0.01,WUHU216DAVISVP2,2013-02-14 23:32:00,
2013-02-14 18:37:00,41.9,32.9,29.99,NNE,13,0.0,0.0,70,0.00,,,0.01,WUHU216DAVISVP2,2013-02-14 23:37:00,
2013-02-14 18:42:00,41.6,33.0,29.99,NNE,13,0.0,0.0,71,0.00,,,0.01,WUHU216DAVISVP2,2013-02-14 23:42:00,
2013-02-14 18:47:00,41.2,32.6,29.99,NNE,13,0.0,0.0,71,0.00,,,0.01,WUHU216DAVISVP2,2013-02-14 23:47:00,
2013-02-14 18:52:00,40.9,32.6,29.99,NNE,13,0.0,0.0,72,0.00,,,0.01,WUHU216DAVISVP2,2013-02-14 23:52:00,
2013-02-14 18:57:00,40.5,32.3,29.99,NNE,13,0.0,0.0,72,0.00,,,0.01,WUHU216DAVISVP2,2013-02-14 23:57:00,
2013-02-14 19:02:00,40.3,32.4,30.00,NNE,13,0.0,0.0,73,0.00,,,0.01,WUHU216DAVISVP2,2013-02-15 00:02:00,
2013-02-14 19:07:00,40.1,32.5,30.00,NNE,13,0.0,0.0,74,0.00,,,0.01,WUHU216DAVISVP2,2013-02-15 00:07:00,
2013-02-14 19:12:00,39.8,32.2,30.00,NNE,13,0.0,0.0,74,0.00,,,0.01,WUHU216DAVISVP2,2013-02-15 00:12:00,
2013-02-14 19:17:00,39.5,32.0,30.01,NNE,13,0.0,0.0,74,0.00,,,0.01,WUHU216DAVISVP2,2013-02-15 00:17:00,
2013-02-14 19:22:00,39.2,31.7,30.01,NNE,13,0.0,0.0,74,0.00,,,0.01,WUHU216DAVISVP2,2013-02-15 00:22:00,
2013-02-14 19:27:00,39.1,31.6,30.01,NNE,13,0.0,0.0,74,0.00,,,0.01,WUHU216DAVISVP2,2013-02-15 00:27:00,
2013-02-14 19:32:00,38.8,31.3,30.00,NNE,13,0.0,0.0,74,0.00,,,0.01,WUHU216DAVISVP2,2013-02-15 00:32:00,
2013-02-14 19:37:00,38.5,31.3,30.00,NNE,13,0.0,0.0,75,0.00,,,0.01,WUHU216DAVISVP2,2013-02-15 00:37:00,
2013-02-14 19:42:00,38.3,31.4,30.00,NNE,13,0.0,0.0,76,0.00,,,0.01,WUHU216DAVISVP2,2013-02-15 00:42:00,
2013-02-14 19:47:00,38.2,31.7,30.00,NNE,13,0.0,0.0,77,0.00,,,0.01,WUHU216DAVISVP2,2013-02-15 00:47:00,
2013-02-14 19:52:00,38.0,31.2,30.00,NNE,13,0.0,0.0,76,0.00,,,0.01,WUHU216DAVISVP2,2013-02-15 00:52:00,
2013-02-14 19:57:00,37.8,31.0,30.00,NNE,13,0.0,0.0,76,0.00,,,0.01,WUHU216DAVISVP2,2013-02-15 00:57:00,
2013-02-14 20:02:00,37.5,30.9,30.01,NNE,13,0.0,0.0,77,0.00,,,0.01,WUHU216DAVISVP2,2013-02-15 01:02:00,
2013-02-14 20:07:00,37.3,30.7,30.01,NNE,13,0.0,0.0,77,0.00,,,0.01,WUHU216DAVISVP2,2013-02-15 01:07:00,
2013-02-14 20:12:00,37.0,30.5,30.01,NNE,13,0.0,0.0,77,0.00,,,0.01,WUHU216DAVISVP2,2013-02-15 01:12:00,
2013-02-14 20:17:00,36.9,30.4,30.01,NNE,13,0.0,0.0,77,0.00,,,0.01,WUHU216DAVISVP2,2013-02-15 01:17:00,
2013-02-14 20:22:00,36.8,30.3,30.01,NNE,13,0.0,0.0,77,0.00,,,0.01,WUHU216DAVISVP2,2013-02-15 01:22:00,
2013-02-14 20:27:00,36.6,30.4,30.01,NNE,13,0.0,0.0,78,0.00,,,0.01,WUHU216DAVISVP2,2013-02-15 01:27:00,
2013-02-14 20:32:00,36.5,30.3,30.02,NNE,13,0.0,0.0,78,0.00,,,0.01,WUHU216DAVISVP2,2013-02-15 01:32:00,
2013-02-14 20:37:00,36.3,30.1,30.02,NNE,13,0.0,0.0,78,0.00,,,0.01,WUHU216DAVISVP2,2013-02-15 01:37:00,
2013-02-14 20:42:00,36.3,30.1,30.02,NNE,13,0.0,0.0,78,0.00,,,0.01,WUHU216DAVISVP2,2013-02-15 01:42:00,
2013-02-14 20:47:00,36.3,30.4,30.03,NNE,13,0.0,0.0,79,0.00,,,0.01,WUHU216DAVISVP2,2013-02-15 01:47:00,
2013-02-14 20:52:00,36.3,30.4,30.03,NNE,13,0.0,0.0,79,0.00,,,0.01,WUHU216DAVISVP2,2013-02-15 01:52:00,
2013-02-14 20:57:00,36.3,30.4,30.03,NNE,13,0.0,0.0,79,0.00,,,0.01,WUHU216DAVISVP2,2013-02-15 01:57:00,
2013-02-14 21:02:00,36.3,30.4,30.03,NNE,13,0.0,0.0,79,0.00,,,0.01,WUHU216DAVISVP2,2013-02-15 02:02:00,
2013-02-14 21:07:00,36.3,30.4,30.03,NNE,13,0.0,0.0,79,0.00,,,0.01,WUHU216DAVISVP2,2013-02-15 02:07:00,
2013-02-14 21:12:00,36.3,30.4,30.03,NNE,13,0.0,0.0,79,0.00,,,0.01,WUHU216DAVISVP2,2013-02-15 02:12:00,
2013-02-14 21:17:00,36.3,30.4,30.02,NNE,13,0.0,0.0,79,0.00,,,0.01,WUHU216DAVISVP2,2013-02-15 02:17:00,
2013-02-14 21:22:00,35.3,29.5,30.02,NNE,13,0.0,0.0,79,0.00,,,0.01,WUHU216DAVISVP2,2013-02-15 02:22:00,
2013-02-14 21:27:00,35.2,29.3,30.02,NNE,13,0.0,0.0,79,0.00,,,0.01,WUHU216DAVISVP2,2013-02-15 02:27:00,
2013-02-14 21:32:00,35.0,29.5,30.02,NNE,13,0.0,0.0,80,0.00,,,0.01,WUHU216DAVISVP2,2013-02-15 02:32:00,
2013-02-14 21:37:00,35.0,29.5,30.02,NNE,13,0.0,0.0,80,0.00,,,0.01,WUHU216DAVISVP2,2013-02-15 02:37:00,
2013-02-14 21:42:00,35.0,29.5,30.02,NNE,13,0.0,0.0,80,0.00,,,0.01,WUHU216DAVISVP2,2013-02-15 02:42:00,
2013-02-14 21:47:00,35.0,29.5,30.04,NNE,13,0.0,0.0,80,0.00,,,0.01,WUHU216DAVISVP2,2013-02-15 02:47:00,
2013-02-14 21:53:00,35.0,29.8,30.04,NNE,13,0.0,0.0,81,0.00,,,0.01,WUHU216DAVISVP2,2013-02-15 02:53:00,
2013-02-14 21:58:00,34.9,29.7,30.04,NNE,13,0.0,0.0,81,0.00,,,0.01,WUHU216DAVISVP2,2013-02-15 02:58:00,
2013-02-14 22:03:00,34.9,29.7,30.05,NNE,13,0.0,0.0,81,0.00,,,0.01,WUHU216DAVISVP2,2013-02-15 03:03:00,
2013-02-14 22:08:00,34.9,29.7,30.05,NNE,13,0.0,0.0,81,0.00,,,0.01,WUHU216DAVISVP2,2013-02-15 03:08:00,
2013-02-14 22:13:00,34.9,29.7,30.05,NNE,13,0.0,0.0,81,0.00,,,0.01,WUHU216DAVISVP2,2013-02-15 03:13:00,
2013-02-14 22:18:00,34.9,29.7,30.05,NNE,13,0.0,0.0,81,0.00,,,0.01,WUHU216DAVISVP2,2013-02-15 03:18:00,
2013-02-14 22:23:00,34.9,29.7,30.05,NNE,13,0.0,0.0,81,0.00,,,0.01,WUHU216DAVISVP2,2013-02-15 03:23:00,